sensor_id;sensor_type;location;lat;lon;timestamp;P1;durP1;ratioP1;P2;durP2;ratioP2
76131;SDS011;64877;50.994;13.650;2024-02-16T00:01:59;23.08;;;14.95;;
76131;SDS011;64877;50.994;13.650;2024-02-16T00:04:27;20.58;;;13.18;;
76131;SDS011;64877;50.994;13.650;2024-02-16T00:06:53;22.15;;;13.82;;
76131;SDS011;64877;50.994;13.650;2024-02-16T00:09:18;24.58;;;14.48;;
76131;SDS011;64877;50.994;13.650;2024-02-16T00:11:43;24.17;;;14.32;;
76131;SDS011;64877;50.994;13.650;2024-02-16T00:14:10;22.00;;;14.25;;
76131;SDS011;64877;50.994;13.650;2024-02-16T00:16:35;22.27;;;14.35;;
76131;SDS011;64877;50.994;13.650;2024-02-16T00:19:00;21.23;;;12.88;;
76131;SDS011;64877;50.994;13.650;2024-02-16T00:21:26;21.08;;;12.43;;
76131;SDS011;64877;50.994;13.650;2024-02-16T00:23:52;23.58;;;14.77;;
76131;SDS011;64877;50.994;13.650;2024-02-16T00:26:17;20.35;;;13.63;;
76131;SDS011;64877;50.994;13.650;2024-02-16T00:28:43;22.63;;;13.23;;
76131;SDS011;64877;50.994;13.650;2024-02-16T00:31:08;22.63;;;13.90;;
76131;SDS011;64877;50.994;13.650;2024-02-16T00:33:34;20.73;;;13.25;;
76131;SDS011;64877;50.994;13.650;2024-02-16T00:35:59;21.50;;;13.40;;
76131;SDS011;64877;50.994;13.650;2024-02-16T00:38:24;20.60;;;13.45;;
76131;SDS011;64877;50.994;13.650;2024-02-16T00:40:50;19.00;;;12.70;;
76131;SDS011;64877;50.994;13.650;2024-02-16T00:43:15;18.65;;;11.57;;
76131;SDS011;64877;50.994;13.650;2024-02-16T00:45:42;19.15;;;12.43;;
76131;SDS011;64877;50.994;13.650;2024-02-16T00:48:09;19.13;;;13.15;;
76131;SDS011;64877;50.994;13.650;2024-02-16T00:50:35;20.02;;;12.35;;
76131;SDS011;64877;50.994;13.650;2024-02-16T00:53:01;18.77;;;11.63;;
76131;SDS011;64877;50.994;13.650;2024-02-16T00:55:26;21.88;;;13.05;;
76131;SDS011;64877;50.994;13.650;2024-02-16T00:57:53;20.52;;;11.63;;
76131;SDS011;64877;50.994;13.650;2024-02-16T01:00:18;20.58;;;11.95;;
76131;SDS011;64877;50.994;13.650;2024-02-16T01:02:45;18.63;;;11.68;;
76131;SDS011;64877;50.994;13.650;2024-02-16T01:05:10;19.50;;;12.00;;
76131;SDS011;64877;50.994;13.650;2024-02-16T01:07:36;18.38;;;12.20;;
76131;SDS011;64877;50.994;13.650;2024-02-16T01:10:02;18.42;;;11.88;;
76131;SDS011;64877;50.994;13.650;2024-02-16T01:12:28;19.17;;;12.20;;
76131;SDS011;64877;50.994;13.650;2024-02-16T01:14:56;22.55;;;11.48;;
76131;SDS011;64877;50.994;13.650;2024-02-16T01:17:21;20.88;;;12.73;;
76131;SDS011;64877;50.994;13.650;2024-02-16T01:19:46;19.80;;;12.02;;
76131;SDS011;64877;50.994;13.650;2024-02-16T01:22:12;18.25;;;11.98;;
76131;SDS011;64877;50.994;13.650;2024-02-16T01:24:37;21.20;;;12.95;;
76131;SDS011;64877;50.994;13.650;2024-02-16T01:27:03;22.40;;;12.23;;
76131;SDS011;64877;50.994;13.650;2024-02-16T01:29:28;18.13;;;11.48;;
76131;SDS011;64877;50.994;13.650;2024-02-16T01:31:54;20.02;;;12.15;;
76131;SDS011;64877;50.994;13.650;2024-02-16T01:34:19;17.08;;;11.00;;
76131;SDS011;64877;50.994;13.650;2024-02-16T01:36:44;17.38;;;11.13;;
76131;SDS011;64877;50.994;13.650;2024-02-16T01:39:10;18.60;;;10.93;;
76131;SDS011;64877;50.994;13.650;2024-02-16T01:41:38;18.90;;;11.18;;
76131;SDS011;64877;50.994;13.650;2024-02-16T01:44:04;22.15;;;11.75;;
76131;SDS011;64877;50.994;13.650;2024-02-16T01:46:30;15.73;;;10.48;;
76131;SDS011;64877;50.994;13.650;2024-02-16T01:48:58;17.00;;;10.73;;
76131;SDS011;64877;50.994;13.650;2024-02-16T01:51:23;16.88;;;11.32;;
76131;SDS011;64877;50.994;13.650;2024-02-16T01:53:51;18.80;;;12.18;;
76131;SDS011;64877;50.994;13.650;2024-02-16T01:56:17;15.98;;;10.23;;
76131;SDS011;64877;50.994;13.650;2024-02-16T01:58:46;16.08;;;10.38;;
76131;SDS011;64877;50.994;13.650;2024-02-16T02:03:39;15.98;;;9.38;;
76131;SDS011;64877;50.994;13.650;2024-02-16T02:06:04;17.10;;;9.50;;
76131;SDS011;64877;50.994;13.650;2024-02-16T02:08:30;14.85;;;9.30;;
76131;SDS011;64877;50.994;13.650;2024-02-16T02:10:55;15.43;;;8.13;;
76131;SDS011;64877;50.994;13.650;2024-02-16T02:13:20;15.90;;;10.43;;
76131;SDS011;64877;50.994;13.650;2024-02-16T02:15:47;14.88;;;8.73;;
76131;SDS011;64877;50.994;13.650;2024-02-16T02:18:13;16.00;;;9.70;;
76131;SDS011;64877;50.994;13.650;2024-02-16T02:20:38;16.55;;;10.68;;
76131;SDS011;64877;50.994;13.650;2024-02-16T02:23:04;17.23;;;10.02;;
76131;SDS011;64877;50.994;13.650;2024-02-16T02:25:29;15.98;;;10.38;;
76131;SDS011;64877;50.994;13.650;2024-02-16T02:27:55;15.43;;;9.10;;
76131;SDS011;64877;50.994;13.650;2024-02-16T02:30:20;15.68;;;9.35;;
76131;SDS011;64877;50.994;13.650;2024-02-16T02:32:46;15.10;;;9.23;;
76131;SDS011;64877;50.994;13.650;2024-02-16T02:35:14;13.68;;;8.80;;
76131;SDS011;64877;50.994;13.650;2024-02-16T02:40:07;13.63;;;8.52;;
76131;SDS011;64877;50.994;13.650;2024-02-16T02:42:34;15.32;;;9.07;;
76131;SDS011;64877;50.994;13.650;2024-02-16T02:44:59;15.75;;;9.60;;
76131;SDS011;64877;50.994;13.650;2024-02-16T02:47:25;17.33;;;8.77;;
76131;SDS011;64877;50.994;13.650;2024-02-16T02:49:50;12.75;;;7.95;;
76131;SDS011;64877;50.994;13.650;2024-02-16T02:52:16;14.00;;;8.73;;
76131;SDS011;64877;50.994;13.650;2024-02-16T02:54:42;14.68;;;8.57;;
76131;SDS011;64877;50.994;13.650;2024-02-16T02:57:07;13.18;;;8.48;;
76131;SDS011;64877;50.994;13.650;2024-02-16T02:59:33;17.70;;;10.05;;
76131;SDS011;64877;50.994;13.650;2024-02-16T03:01:58;19.00;;;9.85;;
76131;SDS011;64877;50.994;13.650;2024-02-16T03:04:24;17.63;;;9.50;;
76131;SDS011;64877;50.994;13.650;2024-02-16T03:06:52;17.73;;;9.60;;
76131;SDS011;64877;50.994;13.650;2024-02-16T03:09:18;20.00;;;9.05;;
76131;SDS011;64877;50.994;13.650;2024-02-16T03:11:43;13.30;;;8.23;;
76131;SDS011;64877;50.994;13.650;2024-02-16T03:14:09;15.00;;;8.88;;
76131;SDS011;64877;50.994;13.650;2024-02-16T03:16:34;15.45;;;7.75;;
76131;SDS011;64877;50.994;13.650;2024-02-16T03:19:00;12.55;;;7.43;;
76131;SDS011;64877;50.994;13.650;2024-02-16T03:21:25;13.38;;;7.47;;
76131;SDS011;64877;50.994;13.650;2024-02-16T03:23:51;11.43;;;6.85;;
76131;SDS011;64877;50.994;13.650;2024-02-16T03:26:17;12.30;;;7.35;;
76131;SDS011;64877;50.994;13.650;2024-02-16T03:28:44;13.07;;;7.13;;
76131;SDS011;64877;50.994;13.650;2024-02-16T03:31:30;16.77;;;6.97;;
76131;SDS011;64877;50.994;13.650;2024-02-16T03:33:56;11.15;;;6.72;;
76131;SDS011;64877;50.994;13.650;2024-02-16T03:36:23;12.85;;;7.97;;
76131;SDS011;64877;50.994;13.650;2024-02-16T03:38:48;12.18;;;7.82;;
76131;SDS011;64877;50.994;13.650;2024-02-16T03:41:20;12.98;;;8.15;;
76131;SDS011;64877;50.994;13.650;2024-02-16T03:43:47;12.93;;;7.85;;
76131;SDS011;64877;50.994;13.650;2024-02-16T03:46:12;15.50;;;8.43;;
76131;SDS011;64877;50.994;13.650;2024-02-16T03:48:38;14.23;;;9.15;;
76131;SDS011;64877;50.994;13.650;2024-02-16T03:51:04;13.02;;;8.05;;
76131;SDS011;64877;50.994;13.650;2024-02-16T03:53:30;12.80;;;8.05;;
76131;SDS011;64877;50.994;13.650;2024-02-16T03:55:55;13.13;;;7.32;;
76131;SDS011;64877;50.994;13.650;2024-02-16T03:58:21;10.05;;;6.07;;
76131;SDS011;64877;50.994;13.650;2024-02-16T04:00:47;11.15;;;6.75;;
76131;SDS011;64877;50.994;13.650;2024-02-16T04:03:14;12.32;;;6.60;;
76131;SDS011;64877;50.994;13.650;2024-02-16T04:05:39;15.85;;;8.05;;
76131;SDS011;64877;50.994;13.650;2024-02-16T04:08:05;15.40;;;7.95;;
76131;SDS011;64877;50.994;13.650;2024-02-16T04:10:31;12.48;;;6.88;;
76131;SDS011;64877;50.994;13.650;2024-02-16T04:12:58;10.55;;;6.10;;
76131;SDS011;64877;50.994;13.650;2024-02-16T04:15:23;13.43;;;6.70;;
76131;SDS011;64877;50.994;13.650;2024-02-16T04:17:49;11.98;;;6.38;;
76131;SDS011;64877;50.994;13.650;2024-02-16T04:20:17;10.82;;;6.43;;
76131;SDS011;64877;50.994;13.650;2024-02-16T04:22:43;12.38;;;6.90;;
76131;SDS011;64877;50.994;13.650;2024-02-16T04:25:09;10.38;;;6.25;;
76131;SDS011;64877;50.994;13.650;2024-02-16T04:27:35;12.18;;;7.95;;
76131;SDS011;64877;50.994;13.650;2024-02-16T04:30:01;17.63;;;9.27;;
76131;SDS011;64877;50.994;13.650;2024-02-16T04:32:27;17.65;;;8.90;;
76131;SDS011;64877;50.994;13.650;2024-02-16T04:34:52;15.63;;;9.50;;
76131;SDS011;64877;50.994;13.650;2024-02-16T04:37:18;16.13;;;9.27;;
76131;SDS011;64877;50.994;13.650;2024-02-16T04:39:46;14.55;;;7.85;;
76131;SDS011;64877;50.994;13.650;2024-02-16T04:42:12;11.50;;;7.70;;
76131;SDS011;64877;50.994;13.650;2024-02-16T04:44:37;14.98;;;7.78;;
76131;SDS011;64877;50.994;13.650;2024-02-16T04:47:06;12.98;;;7.85;;
76131;SDS011;64877;50.994;13.650;2024-02-16T04:49:32;15.68;;;8.93;;
76131;SDS011;64877;50.994;13.650;2024-02-16T04:51:57;12.85;;;7.15;;
76131;SDS011;64877;50.994;13.650;2024-02-16T04:54:23;10.95;;;6.55;;
76131;SDS011;64877;50.994;13.650;2024-02-16T04:56:48;16.23;;;7.60;;
76131;SDS011;64877;50.994;13.650;2024-02-16T04:59:14;11.90;;;7.28;;
76131;SDS011;64877;50.994;13.650;2024-02-16T05:01:40;13.88;;;7.38;;
76131;SDS011;64877;50.994;13.650;2024-02-16T05:04:06;10.00;;;6.38;;
76131;SDS011;64877;50.994;13.650;2024-02-16T05:06:32;10.43;;;6.10;;
76131;SDS011;64877;50.994;13.650;2024-02-16T05:08:57;13.00;;;6.25;;
76131;SDS011;64877;50.994;13.650;2024-02-16T05:11:23;13.10;;;6.95;;
76131;SDS011;64877;50.994;13.650;2024-02-16T05:13:50;13.10;;;7.35;;
76131;SDS011;64877;50.994;13.650;2024-02-16T05:16:15;11.05;;;7.25;;
76131;SDS011;64877;50.994;13.650;2024-02-16T05:18:42;12.02;;;6.32;;
76131;SDS011;64877;50.994;13.650;2024-02-16T05:21:07;11.68;;;6.25;;
76131;SDS011;64877;50.994;13.650;2024-02-16T05:23:32;15.38;;;6.65;;
76131;SDS011;64877;50.994;13.650;2024-02-16T05:25:58;12.40;;;6.78;;
76131;SDS011;64877;50.994;13.650;2024-02-16T05:28:23;17.15;;;8.20;;
76131;SDS011;64877;50.994;13.650;2024-02-16T05:30:49;9.57;;;5.82;;
76131;SDS011;64877;50.994;13.650;2024-02-16T05:33:14;13.32;;;6.20;;
76131;SDS011;64877;50.994;13.650;2024-02-16T05:35:40;12.90;;;6.68;;
76131;SDS011;64877;50.994;13.650;2024-02-16T05:38:06;11.25;;;7.05;;
76131;SDS011;64877;50.994;13.650;2024-02-16T05:40:46;11.57;;;6.50;;
76131;SDS011;64877;50.994;13.650;2024-02-16T05:43:22;13.20;;;7.05;;
76131;SDS011;64877;50.994;13.650;2024-02-16T05:45:48;15.25;;;8.18;;
76131;SDS011;64877;50.994;13.650;2024-02-16T05:48:14;19.13;;;7.55;;
76131;SDS011;64877;50.994;13.650;2024-02-16T05:50:40;12.90;;;6.68;;
76131;SDS011;64877;50.994;13.650;2024-02-16T05:53:06;15.68;;;7.75;;
76131;SDS011;64877;50.994;13.650;2024-02-16T05:55:32;15.25;;;7.97;;
76131;SDS011;64877;50.994;13.650;2024-02-16T05:57:57;11.82;;;6.03;;
76131;SDS011;64877;50.994;13.650;2024-02-16T06:00:23;12.30;;;6.18;;
76131;SDS011;64877;50.994;13.650;2024-02-16T06:02:48;14.75;;;6.60;;
76131;SDS011;64877;50.994;13.650;2024-02-16T06:05:14;12.40;;;8.18;;
76131;SDS011;64877;50.994;13.650;2024-02-16T06:07:39;14.25;;;7.25;;
76131;SDS011;64877;50.994;13.650;2024-02-16T06:10:05;11.25;;;6.82;;
76131;SDS011;64877;50.994;13.650;2024-02-16T06:12:38;12.60;;;6.93;;
76131;SDS011;64877;50.994;13.650;2024-02-16T06:15:04;13.32;;;7.95;;
76131;SDS011;64877;50.994;13.650;2024-02-16T06:17:30;15.85;;;8.18;;
76131;SDS011;64877;50.994;13.650;2024-02-16T06:19:56;14.43;;;7.32;;
76131;SDS011;64877;50.994;13.650;2024-02-16T06:22:21;14.73;;;7.85;;
76131;SDS011;64877;50.994;13.650;2024-02-16T06:24:46;18.98;;;7.90;;
76131;SDS011;64877;50.994;13.650;2024-02-16T06:27:12;12.68;;;6.95;;
76131;SDS011;64877;50.994;13.650;2024-02-16T06:29:38;12.50;;;7.68;;
76131;SDS011;64877;50.994;13.650;2024-02-16T06:32:03;13.27;;;7.07;;
76131;SDS011;64877;50.994;13.650;2024-02-16T06:34:30;15.75;;;7.15;;
76131;SDS011;64877;50.994;13.650;2024-02-16T06:36:56;11.40;;;6.55;;
76131;SDS011;64877;50.994;13.650;2024-02-16T06:39:22;13.68;;;8.05;;
76131;SDS011;64877;50.994;13.650;2024-02-16T06:41:47;17.65;;;7.90;;
76131;SDS011;64877;50.994;13.650;2024-02-16T06:44:14;13.95;;;7.10;;
76131;SDS011;64877;50.994;13.650;2024-02-16T06:46:41;13.57;;;7.97;;
76131;SDS011;64877;50.994;13.650;2024-02-16T06:49:07;15.40;;;8.90;;
76131;SDS011;64877;50.994;13.650;2024-02-16T06:51:33;14.57;;;8.10;;
76131;SDS011;64877;50.994;13.650;2024-02-16T06:53:58;13.98;;;8.02;;
76131;SDS011;64877;50.994;13.650;2024-02-16T06:56:24;15.82;;;8.95;;
76131;SDS011;64877;50.994;13.650;2024-02-16T06:58:49;14.95;;;9.07;;
76131;SDS011;64877;50.994;13.650;2024-02-16T07:01:15;17.83;;;9.80;;
76131;SDS011;64877;50.994;13.650;2024-02-16T07:03:43;15.82;;;9.20;;
76131;SDS011;64877;50.994;13.650;2024-02-16T07:06:09;15.23;;;9.50;;
76131;SDS011;64877;50.994;13.650;2024-02-16T07:08:38;14.82;;;9.73;;
76131;SDS011;64877;50.994;13.650;2024-02-16T07:11:06;14.88;;;8.30;;
76131;SDS011;64877;50.994;13.650;2024-02-16T07:13:32;17.52;;;9.32;;
76131;SDS011;64877;50.994;13.650;2024-02-16T07:15:58;18.45;;;9.57;;
76131;SDS011;64877;50.994;13.650;2024-02-16T07:18:24;13.70;;;8.73;;
76131;SDS011;64877;50.994;13.650;2024-02-16T07:20:49;17.00;;;8.80;;
76131;SDS011;64877;50.994;13.650;2024-02-16T07:23:15;17.02;;;9.68;;
76131;SDS011;64877;50.994;13.650;2024-02-16T07:25:40;15.93;;;9.35;;
76131;SDS011;64877;50.994;13.650;2024-02-16T07:28:07;17.85;;;10.05;;
76131;SDS011;64877;50.994;13.650;2024-02-16T07:30:33;16.52;;;10.10;;
76131;SDS011;64877;50.994;13.650;2024-02-16T07:33:01;13.93;;;8.70;;
76131;SDS011;64877;50.994;13.650;2024-02-16T07:35:27;15.95;;;8.18;;
76131;SDS011;64877;50.994;13.650;2024-02-16T07:37:52;13.27;;;7.93;;
76131;SDS011;64877;50.994;13.650;2024-02-16T07:40:19;13.90;;;7.50;;
76131;SDS011;64877;50.994;13.650;2024-02-16T07:42:46;15.50;;;8.80;;
76131;SDS011;64877;50.994;13.650;2024-02-16T07:45:11;12.80;;;6.90;;
76131;SDS011;64877;50.994;13.650;2024-02-16T07:47:37;12.25;;;7.40;;
76131;SDS011;64877;50.994;13.650;2024-02-16T07:50:05;12.98;;;6.55;;
76131;SDS011;64877;50.994;13.650;2024-02-16T07:52:31;12.63;;;7.30;;
76131;SDS011;64877;50.994;13.650;2024-02-16T07:54:57;10.90;;;6.80;;
76131;SDS011;64877;50.994;13.650;2024-02-16T07:57:23;13.50;;;7.35;;
76131;SDS011;64877;50.994;13.650;2024-02-16T07:59:49;13.10;;;8.00;;
76131;SDS011;64877;50.994;13.650;2024-02-16T08:02:14;12.60;;;8.52;;
76131;SDS011;64877;50.994;13.650;2024-02-16T08:04:50;12.20;;;7.80;;
76131;SDS011;64877;50.994;13.650;2024-02-16T08:07:16;17.10;;;8.60;;
76131;SDS011;64877;50.994;13.650;2024-02-16T08:09:45;14.43;;;8.82;;
76131;SDS011;64877;50.994;13.650;2024-02-16T08:12:11;13.45;;;8.68;;
76131;SDS011;64877;50.994;13.650;2024-02-16T08:14:38;16.58;;;9.07;;
76131;SDS011;64877;50.994;13.650;2024-02-16T08:17:05;20.48;;;9.88;;
76131;SDS011;64877;50.994;13.650;2024-02-16T08:19:34;15.30;;;9.45;;
76131;SDS011;64877;50.994;13.650;2024-02-16T08:22:02;15.50;;;9.43;;
76131;SDS011;64877;50.994;13.650;2024-02-16T08:24:29;16.15;;;8.75;;
76131;SDS011;64877;50.994;13.650;2024-02-16T08:26:56;16.52;;;9.95;;
76131;SDS011;64877;50.994;13.650;2024-02-16T08:29:22;16.27;;;9.65;;
76131;SDS011;64877;50.994;13.650;2024-02-16T08:31:48;16.80;;;10.45;;
76131;SDS011;64877;50.994;13.650;2024-02-16T08:34:15;17.67;;;10.20;;
76131;SDS011;64877;50.994;13.650;2024-02-16T08:36:44;17.85;;;9.40;;
76131;SDS011;64877;50.994;13.650;2024-02-16T08:39:13;20.48;;;11.98;;
76131;SDS011;64877;50.994;13.650;2024-02-16T08:41:40;23.05;;;10.63;;
76131;SDS011;64877;50.994;13.650;2024-02-16T08:44:06;20.77;;;10.63;;
76131;SDS011;64877;50.994;13.650;2024-02-16T08:46:38;15.93;;;10.23;;
76131;SDS011;64877;50.994;13.650;2024-02-16T08:49:04;20.25;;;11.55;;
76131;SDS011;64877;50.994;13.650;2024-02-16T08:51:31;17.73;;;9.07;;
76131;SDS011;64877;50.994;13.650;2024-02-16T08:53:57;21.20;;;11.25;;
76131;SDS011;64877;50.994;13.650;2024-02-16T08:56:22;20.30;;;11.85;;
76131;SDS011;64877;50.994;13.650;2024-02-16T08:58:48;23.88;;;12.98;;
76131;SDS011;64877;50.994;13.650;2024-02-16T09:01:13;17.25;;;11.43;;
76131;SDS011;64877;50.994;13.650;2024-02-16T09:03:38;19.23;;;11.68;;
76131;SDS011;64877;50.994;13.650;2024-02-16T09:06:05;15.93;;;10.15;;
76131;SDS011;64877;50.994;13.650;2024-02-16T09:08:32;16.38;;;8.90;;
76131;SDS011;64877;50.994;13.650;2024-02-16T09:11:00;16.25;;;9.23;;
76131;SDS011;64877;50.994;13.650;2024-02-16T09:13:25;13.43;;;8.63;;
76131;SDS011;64877;50.994;13.650;2024-02-16T09:15:51;13.43;;;9.07;;
76131;SDS011;64877;50.994;13.650;2024-02-16T09:18:17;13.88;;;9.70;;
76131;SDS011;64877;50.994;13.650;2024-02-16T09:20:42;15.70;;;8.25;;
76131;SDS011;64877;50.994;13.650;2024-02-16T09:23:08;13.32;;;8.23;;
76131;SDS011;64877;50.994;13.650;2024-02-16T09:25:34;13.02;;;8.30;;
76131;SDS011;64877;50.994;13.650;2024-02-16T09:28:00;16.00;;;9.15;;
76131;SDS011;64877;50.994;13.650;2024-02-16T09:30:25;12.90;;;8.68;;
76131;SDS011;64877;50.994;13.650;2024-02-16T09:32:51;13.35;;;8.70;;
76131;SDS011;64877;50.994;13.650;2024-02-16T09:35:17;21.20;;;9.52;;
76131;SDS011;64877;50.994;13.650;2024-02-16T09:37:42;13.25;;;8.30;;
76131;SDS011;64877;50.994;13.650;2024-02-16T09:40:08;15.82;;;8.35;;
76131;SDS011;64877;50.994;13.650;2024-02-16T09:42:37;13.65;;;8.77;;
76131;SDS011;64877;50.994;13.650;2024-02-16T09:45:04;13.25;;;8.30;;
76131;SDS011;64877;50.994;13.650;2024-02-16T09:47:31;13.80;;;8.05;;
76131;SDS011;64877;50.994;13.650;2024-02-16T09:49:58;11.05;;;7.03;;
76131;SDS011;64877;50.994;13.650;2024-02-16T09:52:23;11.90;;;7.72;;
76131;SDS011;64877;50.994;13.650;2024-02-16T09:54:49;11.52;;;7.20;;
76131;SDS011;64877;50.994;13.650;2024-02-16T09:57:18;10.30;;;6.72;;
76131;SDS011;64877;50.994;13.650;2024-02-16T09:59:44;17.33;;;7.55;;
76131;SDS011;64877;50.994;13.650;2024-02-16T10:02:09;12.43;;;6.72;;
76131;SDS011;64877;50.994;13.650;2024-02-16T10:04:35;12.98;;;8.25;;
76131;SDS011;64877;50.994;13.650;2024-02-16T10:07:01;13.43;;;8.43;;
76131;SDS011;64877;50.994;13.650;2024-02-16T10:09:28;12.38;;;8.20;;
76131;SDS011;64877;50.994;13.650;2024-02-16T10:11:57;12.52;;;7.90;;
76131;SDS011;64877;50.994;13.650;2024-02-16T10:14:23;11.57;;;7.35;;
76131;SDS011;64877;50.994;13.650;2024-02-16T10:17:05;11.63;;;6.07;;
76131;SDS011;64877;50.994;13.650;2024-02-16T10:19:32;10.63;;;6.80;;
76131;SDS011;64877;50.994;13.650;2024-02-16T10:22:07;9.43;;;6.00;;
76131;SDS011;64877;50.994;13.650;2024-02-16T10:24:36;8.48;;;5.43;;
76131;SDS011;64877;50.994;13.650;2024-02-16T10:27:06;9.57;;;6.43;;
76131;SDS011;64877;50.994;13.650;2024-02-16T10:29:39;10.30;;;6.30;;
76131;SDS011;64877;50.994;13.650;2024-02-16T10:32:07;10.30;;;6.50;;
76131;SDS011;64877;50.994;13.650;2024-02-16T10:34:32;10.93;;;7.00;;
76131;SDS011;64877;50.994;13.650;2024-02-16T10:37:00;10.55;;;6.20;;
76131;SDS011;64877;50.994;13.650;2024-02-16T10:39:26;10.63;;;6.40;;
76131;SDS011;64877;50.994;13.650;2024-02-16T10:41:52;9.20;;;6.00;;
76131;SDS011;64877;50.994;13.650;2024-02-16T10:44:19;11.20;;;6.30;;
76131;SDS011;64877;50.994;13.650;2024-02-16T10:46:44;10.00;;;5.65;;
76131;SDS011;64877;50.994;13.650;2024-02-16T10:49:10;8.75;;;5.55;;
76131;SDS011;64877;50.994;13.650;2024-02-16T10:51:43;10.00;;;6.05;;
76131;SDS011;64877;50.994;13.650;2024-02-16T10:54:11;9.88;;;6.57;;
76131;SDS011;64877;50.994;13.650;2024-02-16T10:56:40;9.25;;;5.65;;
76131;SDS011;64877;50.994;13.650;2024-02-16T10:59:10;11.77;;;6.90;;
76131;SDS011;64877;50.994;13.650;2024-02-16T11:04:06;8.43;;;5.45;;
76131;SDS011;64877;50.994;13.650;2024-02-16T11:06:48;8.00;;;5.10;;
76131;SDS011;64877;50.994;13.650;2024-02-16T11:11:54;7.93;;;5.32;;
76131;SDS011;64877;50.994;13.650;2024-02-16T11:14:23;6.88;;;4.35;;
76131;SDS011;64877;50.994;13.650;2024-02-16T11:16:53;7.80;;;4.78;;
76131;SDS011;64877;50.994;13.650;2024-02-16T11:19:19;8.35;;;5.40;;
76131;SDS011;64877;50.994;13.650;2024-02-16T11:24:31;9.77;;;5.57;;
76131;SDS011;64877;50.994;13.650;2024-02-16T11:26:57;9.02;;;5.57;;
76131;SDS011;64877;50.994;13.650;2024-02-16T11:29:23;7.85;;;5.53;;
76131;SDS011;64877;50.994;13.650;2024-02-16T11:31:50;9.88;;;5.90;;
76131;SDS011;64877;50.994;13.650;2024-02-16T11:34:22;9.88;;;5.47;;
76131;SDS011;64877;50.994;13.650;2024-02-16T11:36:48;7.85;;;5.70;;
76131;SDS011;64877;50.994;13.650;2024-02-16T11:39:13;7.93;;;5.07;;
76131;SDS011;64877;50.994;13.650;2024-02-16T11:41:41;9.07;;;5.68;;
76131;SDS011;64877;50.994;13.650;2024-02-16T11:44:07;8.30;;;5.85;;
76131;SDS011;64877;50.994;13.650;2024-02-16T11:46:32;10.52;;;5.47;;
76131;SDS011;64877;50.994;13.650;2024-02-16T11:49:07;9.18;;;5.63;;
76131;SDS011;64877;50.994;13.650;2024-02-16T11:51:33;8.00;;;5.35;;
76131;SDS011;64877;50.994;13.650;2024-02-16T11:53:59;7.70;;;5.43;;
76131;SDS011;64877;50.994;13.650;2024-02-16T11:56:25;9.90;;;5.90;;
76131;SDS011;64877;50.994;13.650;2024-02-16T11:58:51;10.75;;;6.05;;
76131;SDS011;64877;50.994;13.650;2024-02-16T12:01:17;9.27;;;5.45;;
76131;SDS011;64877;50.994;13.650;2024-02-16T12:03:43;7.57;;;5.40;;
76131;SDS011;64877;50.994;13.650;2024-02-16T12:06:08;7.88;;;4.97;;
76131;SDS011;64877;50.994;13.650;2024-02-16T12:08:34;8.50;;;5.10;;
76131;SDS011;64877;50.994;13.650;2024-02-16T12:11:00;8.82;;;5.20;;
76131;SDS011;64877;50.994;13.650;2024-02-16T12:13:27;8.00;;;5.20;;
76131;SDS011;64877;50.994;13.650;2024-02-16T12:15:53;8.93;;;6.03;;
76131;SDS011;64877;50.994;13.650;2024-02-16T12:18:22;9.75;;;5.75;;
76131;SDS011;64877;50.994;13.650;2024-02-16T12:21:01;9.93;;;5.28;;
76131;SDS011;64877;50.994;13.650;2024-02-16T12:23:27;8.13;;;4.90;;
76131;SDS011;64877;50.994;13.650;2024-02-16T12:25:53;7.32;;;4.53;;
76131;SDS011;64877;50.994;13.650;2024-02-16T12:28:19;5.93;;;4.30;;
76131;SDS011;64877;50.994;13.650;2024-02-16T12:30:53;6.00;;;3.58;;
76131;SDS011;64877;50.994;13.650;2024-02-16T12:33:19;6.35;;;3.47;;
76131;SDS011;64877;50.994;13.650;2024-02-16T12:35:45;7.03;;;3.30;;
76131;SDS011;64877;50.994;13.650;2024-02-16T12:38:11;5.68;;;3.33;;
76131;SDS011;64877;50.994;13.650;2024-02-16T12:40:37;6.20;;;3.15;;
76131;SDS011;64877;50.994;13.650;2024-02-16T12:43:02;5.25;;;3.00;;
76131;SDS011;64877;50.994;13.650;2024-02-16T12:45:28;6.75;;;3.63;;
76131;SDS011;64877;50.994;13.650;2024-02-16T12:47:53;6.03;;;3.83;;
76131;SDS011;64877;50.994;13.650;2024-02-16T12:50:18;6.93;;;3.50;;
76131;SDS011;64877;50.994;13.650;2024-02-16T12:52:44;6.93;;;4.22;;
76131;SDS011;64877;50.994;13.650;2024-02-16T12:55:09;6.30;;;3.63;;
76131;SDS011;64877;50.994;13.650;2024-02-16T12:57:35;7.90;;;3.72;;
76131;SDS011;64877;50.994;13.650;2024-02-16T13:00:01;5.75;;;3.85;;
76131;SDS011;64877;50.994;13.650;2024-02-16T13:02:28;5.80;;;3.30;;
76131;SDS011;64877;50.994;13.650;2024-02-16T13:04:54;6.45;;;3.53;;
76131;SDS011;64877;50.994;13.650;2024-02-16T13:07:19;5.82;;;3.63;;
76131;SDS011;64877;50.994;13.650;2024-02-16T13:09:45;7.05;;;3.38;;
76131;SDS011;64877;50.994;13.650;2024-02-16T13:12:10;5.82;;;3.40;;
76131;SDS011;64877;50.994;13.650;2024-02-16T13:14:36;5.35;;;3.45;;
76131;SDS011;64877;50.994;13.650;2024-02-16T13:17:02;4.95;;;3.22;;
76131;SDS011;64877;50.994;13.650;2024-02-16T13:19:27;4.85;;;3.05;;
76131;SDS011;64877;50.994;13.650;2024-02-16T13:21:53;6.70;;;2.95;;
76131;SDS011;64877;50.994;13.650;2024-02-16T13:24:18;4.63;;;2.97;;
76131;SDS011;64877;50.994;13.650;2024-02-16T13:26:44;5.82;;;2.88;;
76131;SDS011;64877;50.994;13.650;2024-02-16T13:29:09;5.55;;;3.28;;
76131;SDS011;64877;50.994;13.650;2024-02-16T13:31:36;4.05;;;2.65;;
76131;SDS011;64877;50.994;13.650;2024-02-16T13:34:01;4.28;;;2.30;;
76131;SDS011;64877;50.994;13.650;2024-02-16T13:36:26;6.25;;;3.20;;
76131;SDS011;64877;50.994;13.650;2024-02-16T13:38:52;4.65;;;2.88;;
76131;SDS011;64877;50.994;13.650;2024-02-16T13:41:18;6.25;;;4.00;;
76131;SDS011;64877;50.994;13.650;2024-02-16T13:43:43;7.47;;;4.53;;
76131;SDS011;64877;50.994;13.650;2024-02-16T13:46:09;8.07;;;4.57;;
76131;SDS011;64877;50.994;13.650;2024-02-16T13:48:35;7.25;;;4.28;;
76131;SDS011;64877;50.994;13.650;2024-02-16T13:53:28;9.20;;;5.18;;
76131;SDS011;64877;50.994;13.650;2024-02-16T13:55:55;6.05;;;4.55;;
76131;SDS011;64877;50.994;13.650;2024-02-16T13:58:20;7.18;;;4.95;;
76131;SDS011;64877;50.994;13.650;2024-02-16T14:00:46;8.20;;;5.43;;
76131;SDS011;64877;50.994;13.650;2024-02-16T14:05:39;7.72;;;4.93;;
76131;SDS011;64877;50.994;13.650;2024-02-16T14:08:05;10.00;;;6.45;;
76131;SDS011;64877;50.994;13.650;2024-02-16T14:10:33;10.45;;;6.15;;
76131;SDS011;64877;50.994;13.650;2024-02-16T14:12:58;9.55;;;6.38;;
76131;SDS011;64877;50.994;13.650;2024-02-16T14:15:24;8.55;;;6.05;;
76131;SDS011;64877;50.994;13.650;2024-02-16T14:17:49;7.32;;;5.30;;
76131;SDS011;64877;50.994;13.650;2024-02-16T14:20:15;9.13;;;6.22;;
76131;SDS011;64877;50.994;13.650;2024-02-16T14:22:40;8.20;;;5.32;;
76131;SDS011;64877;50.994;13.650;2024-02-16T14:25:06;9.43;;;5.53;;
76131;SDS011;64877;50.994;13.650;2024-02-16T14:27:31;11.18;;;5.20;;
76131;SDS011;64877;50.994;13.650;2024-02-16T14:29:57;9.27;;;6.13;;
76131;SDS011;64877;50.994;13.650;2024-02-16T14:32:23;6.85;;;4.70;;
76131;SDS011;64877;50.994;13.650;2024-02-16T14:34:48;7.25;;;4.28;;